Time;durP1;ratioP1;P1;durP2;ratioP2;P2;SDS_P1;SDS_P2;PMS_P1;PMS_P2;Temp;Humidity;BMP_temperature;BMP_pressure;BME280_temperature;BME280_humidity;BME280_pressure;Samples;Min_cycle;Max_cycle;Signal;HPM_P1;HPM_P2
2022/09/28 00:02:08;;;;;;;;;;;;;;;;;;5050870;28;1910;-73
2022/09/28 00:04:36;;;;;;;;;;;;;;;;;;5051458;28;859;-73
2022/09/28 00:07:02;;;;;;;;;;;;;;;;;;5051005;28;964;-74
2022/09/28 00:09:28;;;;;;;;;;;;;;;;;;5033414;28;1341;-73
2022/09/28 00:11:55;;;;;;;;;;;;;;;;;;5050610;28;767;-73
2022/09/28 00:14:22;;;;;;;;;;;;;;;;;;5051209;28;832;-73
2022/09/28 00:16:48;;;;;;;;;;;;;;;;;;5051032;28;869;-73
2022/09/28 00:19:14;;;;;;;;;;;;;;;;;;5033070;28;1330;-73
2022/09/28 00:21:42;;;;;;;;;;;;;;;;;;5032892;28;1983;-74
2022/09/28 00:24:13;;;;;;;;;;;;;;;;;;5033145;28;910;-73
2022/09/28 00:26:40;;;;;;;;;;;;;;;;;;5051199;28;1096;-73
2022/09/28 00:29:07;;;;;;;;;;;;;;;;;;5033070;28;1336;-73
2022/09/28 00:31:34;;;;;;;;;;;;;;;;;;5050722;28;770;-73
2022/09/28 00:34:00;;;;;;;;;;;;;;;;;;5051015;28;1020;-73
2022/09/28 00:36:27;;;;;;;;;;;;;;;;;;5050868;28;820;-73
2022/09/28 00:38:56;;;;;;;;;;;;;;;;;;5032912;28;1373;-72
2022/09/28 00:41:22;;;;;;;;;;;;;;;;;;5032682;28;1967;-75
2022/09/28 00:43:48;;;;;;;;;;;;;;;;;;5032969;28;1304;-72
2022/09/28 00:46:17;;;;;;;;;;;;;;;;;;5050899;28;878;-73
2022/09/28 00:48:44;;;;;;;;;;;;;;;;;;5032697;28;1498;-73
2022/09/28 00:51:11;;;;;;;;;;;;;;;;;;5032852;28;1158;-73
2022/09/28 00:53:37;;;;;;;;;;;;;;;;;;5050492;28;960;-73
2022/09/28 00:56:08;;;;;;;;;;;;;;;;;;5032803;28;1504;-73
2022/09/28 00:58:35;;;;;;;;;;;;;;;;;;5049366;28;1475;-73
2022/09/28 01:01:01;;;;;;;;;;;;;;;;;;5032553;28;1926;-72
2022/09/28 01:03:27;;;;;;;;;;;;;;;;;;5032754;28;1510;-73
2022/09/28 01:05:53;;;;;;;;;;;;;;;;;;5032803;28;1243;-73
2022/09/28 01:08:20;;;;;;;;;;;;;;;;;;5032732;28;1433;-73
2022/09/28 01:10:47;;;;;;;;;;;;;;;;;;5033641;28;1274;-72
2022/09/28 01:13:17;;;;;;;;;;;;;;;;;;5036236;28;1239;-73
2022/09/28 01:15:47;;;;;;;;;;;;;;;;;;5053183;28;925;-73
2022/09/28 01:18:16;;;;;;;;;;;;;;;;;;5036139;28;1421;-73
2022/09/28 01:20:50;;;;;;;;;;;;;;;;;;5036509;28;1914;-72
2022/09/28 01:23:35;;;;;;;;;;;;;;;;;;5053922;28;1068;-74
2022/09/28 01:26:15;;;;;;;;;;;;;;;;;;5035917;28;1232;-73
2022/09/28 01:28:41;;;;;;;;;;;;;;;;;;5045859;22;4109;-69
2022/09/28 01:31:09;;;;;;;;;;;;;;;;;;5035781;28;1023;-71
2022/09/28 01:33:37;;;;;;;;;;;;;;;;;;5035443;28;1073;-70
2022/09/28 01:36:04;;;;;;;;;;;;;;;;;;5054066;28;806;-70
2022/09/28 01:38:31;;;;;;;;;;;;;;;;;;5044205;28;1395;-70
2022/09/28 01:40:58;;;;;;;;;;;;;;;;;;5056029;28;1965;-70
2022/09/28 01:43:26;;;;;;;;;;;;;;;;;;5055582;28;1277;-70
2022/09/28 01:45:54;;;;;;;;;;;;;;;;;;5055878;28;1285;-70
2022/09/28 01:48:21;;;;;;;;;;;;;;;;;;5055733;28;1292;-70
2022/09/28 01:50:48;;;;;;;;;;;;;;;;;;5055835;28;1332;-69
2022/09/28 01:53:16;;;;;;;;;;;;;;;;;;5054066;28;1471;-70
2022/09/28 01:55:44;;;;;;;;;;;;;;;;;;5053815;28;1488;-69
2022/09/28 01:58:11;;;;;;;;;;;;;;;;;;5055377;28;1434;-70
2022/09/28 02:00:40;;;;;;;;;;;;;;;;;;5055487;28;1182;-69
2022/09/28 02:03:06;;;;;;;;;;;;;;;;;;5055273;28;1930;-70
2022/09/28 02:05:39;;;;;;;;;;;;;;;;;;5055840;28;1431;-70
2022/09/28 02:08:06;;;;;;;;;;;;;;;;;;5055204;28;1339;-70
2022/09/28 02:10:33;;;;;;;;;;;;;;;;;;5055513;28;1274;-70
2022/09/28 02:13:00;;;;;;;;;;;;;;;;;;5054863;28;1159;-70
2022/09/28 02:15:28;;;;;;;;;;;;;;;;;;5055516;28;1649;-70
2022/09/28 02:17:56;;;;;;;;;;;;;;;;;;5055346;28;1434;-70
2022/09/28 02:20:22;;;;;;;;;;;;;;;;;;5073004;28;842;-70
2022/09/28 02:22:49;;;;;;;;;;;;;;;;;;5071828;28;1918;-69
2022/09/28 02:25:19;;;;;;;;;;;;;;;;;;5055284;28;1303;-70
2022/09/28 02:27:45;;;;;;;;;;;;;;;;;;5055189;28;1369;-70
2022/09/28 02:30:13;;;;;;;;;;;;;;;;;;5055213;28;1443;-70
2022/09/28 02:32:41;;;;;;;;;;;;;;;;;;5072784;28;1127;-70
2022/09/28 02:35:09;;;;;;;;;;;;;;;;;;5054933;28;1468;-69
2022/09/28 02:37:35;;;;;;;;;;;;;;;;;;5054858;28;1406;-70
2022/09/28 02:40:02;;;;;;;;;;;;;;;;;;5054917;28;1274;-70
2022/09/28 02:42:31;;;;;;;;;;;;;;;;;;5054443;28;1918;-69
2022/09/28 02:45:00;;;;;;;;;;;;;;;;;;5054796;28;1458;-70
2022/09/28 02:47:34;;;;;;;;;;;;;;;;;;5054969;28;1550;-70
2022/09/28 02:50:03;;;;;;;;;;;;;;;;;;5054725;28;1699;-70
2022/09/28 02:52:36;;;;;;;;;;;;;;;;;;5054609;28;1306;-70
2022/09/28 02:55:06;;;;;;;;;;;;;;;;;;5054589;28;1349;-70
2022/09/28 02:57:35;;;;;;;;;;;;;;;;;;5054634;28;1351;-69
2022/09/28 03:00:04;;;;;;;;;;;;;;;;;;5037194;28;1187;-70
2022/09/28 03:02:31;;;;;;;;;;;;;;;;;;5034328;28;1915;-70
2022/09/28 03:05:12;;;;;;;;;;;;;;;;;;5034522;28;1454;-70
2022/09/28 03:07:41;;;;;;;;;;;;;;;;;;5036848;28;1881;-69
2022/09/28 03:10:08;;;;;;;;;;;;;;;;;;5047879;28;2137;-70
2022/09/28 03:12:34;;;;;;;;;;;;;;;;;;5064386;28;1150;-70
2022/09/28 03:15:11;;;;;;;;;;;;;;;;;;5051563;28;1240;-69
2022/09/28 03:17:38;;;;;;;;;;;;;;;;;;5054298;28;1325;-68
2022/09/28 03:20:04;;;;;;;;;;;;;;;;;;5053733;28;1556;-70
2022/09/28 03:22:31;;;;;;;;;;;;;;;;;;5053883;28;1914;-69
2022/09/28 03:24:58;;;;;;;;;;;;;;;;;;5054196;28;1168;-70
2022/09/28 03:27:24;;;;;;;;;;;;;;;;;;5054129;28;1557;-70
2022/09/28 03:29:51;;;;;;;;;;;;;;;;;;5071808;28;1291;-70
2022/09/28 03:32:17;;;;;;;;;;;;;;;;;;5053806;28;1394;-70
2022/09/28 03:34:44;;;;;;;;;;;;;;;;;;5053973;28;1351;-70
2022/09/28 03:37:10;;;;;;;;;;;;;;;;;;5054060;28;1320;-70
2022/09/28 03:39:36;;;;;;;;;;;;;;;;;;5053874;28;1421;-70
2022/09/28 03:42:04;;;;;;;;;;;;;;;;;;5053428;28;1915;-70
2022/09/28 03:44:34;;;;;;;;;;;;;;;;;;5053766;28;1386;-70
2022/09/28 03:47:00;;;;;;;;;;;;;;;;;;5053998;28;1635;-70
2022/09/28 03:49:26;;;;;;;;;;;;;;;;;;5054143;28;1385;-70
2022/09/28 03:51:53;;;;;;;;;;;;;;;;;;5040605;28;1527;-70
2022/09/28 03:54:19;;;;;;;;;;;;;;;;;;5034840;28;1297;-70
2022/09/28 03:56:45;;;;;;;;;;;;;;;;;;5052239;28;1127;-70
2022/09/28 03:59:13;;;;;;;;;;;;;;;;;;5033798;28;1333;-70
2022/09/28 04:01:39;;;;;;;;;;;;;;;;;;5033309;28;1985;-70
2022/09/28 04:04:05;;;;;;;;;;;;;;;;;;5033627;28;1324;-70
2022/09/28 04:06:32;;;;;;;;;;;;;;;;;;5033907;28;2091;-69
2022/09/28 04:08:58;;;;;;;;;;;;;;;;;;5033307;28;1498;-69
2022/09/28 04:11:25;;;;;;;;;;;;;;;;;;5033394;28;1031;-70
2022/09/28 04:13:51;;;;;;;;;;;;;;;;;;5033778;28;1418;-71
2022/09/28 04:16:19;;;;;;;;;;;;;;;;;;5033819;28;1339;-70
2022/09/28 04:18:57;;;;;;;;;;;;;;;;;;5033477;28;1718;-70
2022/09/28 04:21:39;;;;;;;;;;;;;;;;;;5032152;28;1964;-69
2022/09/28 04:24:12;;;;;;;;;;;;;;;;;;5033427;28;1451;-71
2022/09/28 04:26:38;;;;;;;;;;;;;;;;;;5043241;28;1804;-71
2022/09/28 04:29:15;;;;;;;;;;;;;;;;;;5039853;28;1405;-71
2022/09/28 04:31:53;;;;;;;;;;;;;;;;;;5042346;28;1693;-69
2022/09/28 04:34:24;;;;;;;;;;;;;;;;;;5031181;28;1389;-71
2022/09/28 04:36:50;;;;;;;;;;;;;;;;;;5040024;28;1528;-71
2022/09/28 04:39:17;;;;;;;;;;;;;;;;;;5033915;28;1469;-70
2022/09/28 04:41:47;;;;;;;;;;;;;;;;;;5050629;28;1914;-70
2022/09/28 04:44:13;;;;;;;;;;;;;;;;;;5042671;28;1588;-70
2022/09/28 04:46:40;;;;;;;;;;;;;;;;;;5036629;28;1448;-71
2022/09/28 04:49:26;;;;;;;;;;;;;;;;;;5067928;28;1418;-71
2022/09/28 04:51:54;;;;;;;;;;;;;;;;;;5054217;28;1282;-70
2022/09/28 04:54:20;;;;;;;;;;;;;;;;;;5054800;28;1150;-70
2022/09/28 04:56:46;;;;;;;;;;;;;;;;;;5048293;28;1456;-69
2022/09/28 04:59:13;;;;;;;;;;;;;;;;;;5046152;28;1432;-70
2022/09/28 05:01:40;;;;;;;;;;;;;;;;;;5054232;28;1918;-71
2022/09/28 05:04:31;;;;;;;;;;;;;;;;;;5043479;28;1160;-71
2022/09/28 05:07:16;;;;;;;;;;;;;;;;;;5060417;28;1408;-71
2022/09/28 05:09:43;;;;;;;;;;;;;;;;;;5049274;28;1521;-71
2022/09/28 05:12:09;;;;;;;;;;;;;;;;;;5053866;28;1246;-70
2022/09/28 05:14:36;;;;;;;;;;;;;;;;;;5054135;28;2153;-72
2022/09/28 05:17:04;;;;;;;;;;;;;;;;;;5044435;28;1417;-70
2022/09/28 05:19:47;;;;;;;;;;;;;;;;;;5054044;28;1454;-69
2022/09/28 05:22:13;;;;;;;;;;;;;;;;;;5045080;28;1910;-71
2022/09/28 05:24:45;;;;;;;;;;;;;;;;;;5041739;28;1379;-71
2022/09/28 05:27:11;;;;;;;;;;;;;;;;;;5045949;28;1387;-71
2022/09/28 05:29:37;;;;;;;;;;;;;;;;;;5040499;28;1431;-69
2022/09/28 05:32:43;;;;;;;;;;;;;;;;;;4984126;28;1451;-71
2022/09/28 05:35:38;;;;;;;;;;;;;;;;;;4994402;28;1395;-72
2022/09/28 05:38:05;;;;;;;;;;;;;;;;;;5022717;28;1417;-71
2022/09/28 05:40:32;;;;;;;;;;;;;;;;;;5037633;28;2172;-72
2022/09/28 05:42:59;;;;;;;;;;;;;;;;;;5052109;28;1934;-71
2022/09/28 05:45:25;;;;;;;;;;;;;;;;;;5052515;28;1407;-72
2022/09/28 05:47:52;;;;;;;;;;;;;;;;;;5067536;28;1582;-70
2022/09/28 05:50:20;;;;;;;;;;;;;;;;;;5035831;28;1407;-70
2022/09/28 05:52:58;;;;;;;;;;;;;;;;;;5034044;28;1317;-70
2022/09/28 05:55:24;;;;;;;;;;;;;;;;;;5043639;28;1428;-72
2022/09/28 05:57:50;;;;;;;;;;;;;;;;;;5045725;28;1433;-71
2022/09/28 06:00:17;;;;;;;;;;;;;;;;;;5038729;28;1554;-72
2022/09/28 06:02:57;;;;;;;;;;;;;;;;;;5044731;28;1971;-71
2022/09/28 06:05:24;;;;;;;;;;;;;;;;;;5050113;28;1111;-72
2022/09/28 06:07:50;;;;;;;;;;;;;;;;;;5051044;28;1443;-71
2022/09/28 06:10:18;;;;;;;;;;;;;;;;;;5053976;28;1483;-71
2022/09/28 06:12:46;;;;;;;;;;;;;;;;;;5053438;28;1292;-71
2022/09/28 06:15:15;;;;;;;;;;;;;;;;;;5053968;28;1459;-71
2022/09/28 06:17:42;;;;;;;;;;;;;;;;;;5053766;28;1402;-71
2022/09/28 06:20:34;;;;;;;;;;;;;;;;;;5052556;28;1433;-72
2022/09/28 06:23:16;;;;;;;;;;;;;;;;;;5053593;28;1967;-71
2022/09/28 06:25:44;;;;;;;;;;;;;;;;;;5053999;28;1367;-71
2022/09/28 06:28:11;;;;;;;;;;;;;;;;;;5008770;28;990928;-72
2022/09/28 06:30:38;;;;;;;;;;;;;;;;;;5039951;28;1384;-70
2022/09/28 06:33:07;;;;;;;;;;;;;;;;;;5059662;28;1469;-72
2022/09/28 06:35:35;;;;;;;;;;;;;;;;;;5034657;28;1469;-71
2022/09/28 06:38:02;;;;;;;;;;;;;;;;;;5052473;28;1419;-71
2022/09/28 06:40:28;;;;;;;;;;;;;;;;;;5064009;28;1404;-70
2022/09/28 06:42:56;;;;;;;;;;;;;;;;;;5049987;28;1960;-70
2022/09/28 06:45:43;;;;;;;;;;;;;;;;;;5072258;28;1349;-71
2022/09/28 06:48:40;;;;;;;;;;;;;;;;;;5039399;28;1449;-71
2022/09/28 06:51:09;;;;;;;;;;;;;;;;;;5052857;28;1657;-71
2022/09/28 06:53:45;;;;;;;;;;;;;;;;;;5053357;28;1402;-71
2022/09/28 06:56:30;;;;;;;;;;;;;;;;;;5041781;28;1175;-71
2022/09/28 06:58:58;;;;;;;;;;;;;;;;;;5051154;28;1351;-70
2022/09/28 07:01:24;;;;;;;;;;;;;;;;;;5035786;28;1495;-71
2022/09/28 07:04:04;;;;;;;;;;;;;;;;;;5035296;28;1968;-71
2022/09/28 07:06:46;;;;;;;;;;;;;;;;;;5062721;28;1122;-71
2022/09/28 07:09:33;;;;;;;;;;;;;;;;;;5053842;28;1494;-72
2022/09/28 07:12:18;;;;;;;;;;;;;;;;;;5043741;28;1459;-72
2022/09/28 07:14:55;;;;;;;;;;;;;;;;;;5041653;28;1362;-71
2022/09/28 07:17:21;;;;;;;;;;;;;;;;;;5065287;28;1450;-71
2022/09/28 07:19:51;;;;;;;;;;;;;;;;;;5051511;28;1567;-71
2022/09/28 07:22:18;;;;;;;;;;;;;;;;;;5041509;28;1465;-71
2022/09/28 07:24:45;;;;;;;;;;;;;;;;;;5046696;28;1910;-71
2022/09/28 07:27:29;;;;;;;;;;;;;;;;;;5051774;28;686;-71
2022/09/28 07:30:16;;;;;;;;;;;;;;;;;;5051633;28;1408;-71
2022/09/28 07:33:15;;;;;;;;;;;;;;;;;;5040489;28;1660;-71
2022/09/28 07:38:31;;;;;;;;;;;;;;;;;;4987946;28;1858;-73
2022/09/28 07:41:13;;;;;;;;;;;;;;;;;;4972070;28;1268;-73
2022/09/28 07:43:44;;;;;;;;;;;;;;;;;;4987888;28;1918;-74
2022/09/28 07:46:12;;;;;;;;;;;;;;;;;;4965113;28;1371;-73
2022/09/28 07:48:44;;;;;;;;;;;;;;;;;;4971784;28;1671;-73
2022/09/28 07:51:18;;;;;;;;;;;;;;;;;;5004180;28;1499;-72
2022/09/28 07:53:56;;;;;;;;;;;;;;;;;;5003989;28;1334;-74
2022/09/28 07:56:40;;;;;;;;;;;;;;;;;;4970849;28;1582;-73
2022/09/28 07:59:17;;;;;;;;;;;;;;;;;;4970717;28;1045;-72
2022/09/28 08:02:11;;;;;;;;;;;;;;;;;;4972221;28;1178;-73
2022/09/28 08:04:38;;;;;;;;;;;;;;;;;;4971272;28;1970;-73
2022/09/28 08:07:08;;;;;;;;;;;;;;;;;;4971015;28;1397;-75
2022/09/28 08:09:34;;;;;;;;;;;;;;;;;;5004160;28;1285;-72
2022/09/28 08:12:19;;;;;;;;;;;;;;;;;;4972342;28;633;-71
2022/09/28 08:15:14;;;;;;;;;;;;;;;;;;4971398;28;1645;-74
2022/09/28 08:17:50;;;;;;;;;;;;;;;;;;4988233;28;1493;-75
2022/09/28 08:23:03;;;;;;;;;;;;;;;;;;4991359;28;1899;-72
2022/09/28 08:25:30;;;;;;;;;;;;;;;;;;4975851;28;1499;-75
2022/09/28 08:27:56;;;;;;;;;;;;;;;;;;4976021;28;1305;-75
2022/09/28 08:30:23;;;;;;;;;;;;;;;;;;4975632;28;1345;-75
2022/09/28 08:32:56;;;;;;;;;;;;;;;;;;4974609;28;1455;-74
2022/09/28 08:35:41;;;;;;;;;;;;;;;;;;4972207;28;1013;-75
2022/09/28 08:38:33;;;;;;;;;;;;;;;;;;4975118;28;1472;-75
2022/09/28 08:41:22;;;;;;;;;;;;;;;;;;4974943;28;1579;-74
2022/09/28 08:43:56;;;;;;;;;;;;;;;;;;4976189;28;1910;-75
2022/09/28 08:46:33;;;;;;;;;;;;;;;;;;4969780;28;1309;-75
2022/09/28 08:49:25;;;;;;;;;;;;;;;;;;4975402;28;1416;-75
2022/09/28 08:52:12;;;;;;;;;;;;;;;;;;4975850;28;1407;-75
2022/09/28 08:55:04;;;;;;;;;;;;;;;;;;4975065;28;1336;-75
2022/09/28 08:57:37;;;;;;;;;;;;;;;;;;4975059;28;1440;-75
2022/09/28 09:00:04;;;;;;;;;;;;;;;;;;4976701;28;1484;-75
2022/09/28 09:02:35;;;;;;;;;;;;;;;;;;4974866;28;1436;-75
2022/09/28 09:05:20;;;;;;;;;;;;;;;;;;4975485;28;1294;-74
2022/09/28 09:08:08;;;;;;;;;;;;;;;;;;4976823;28;1426;-75
2022/09/28 09:10:43;;;;;;;;;;;;;;;;;;4982876;28;1430;-75
2022/09/28 09:13:13;;;;;;;;;;;;;;;;;;4974441;28;1328;-74
2022/09/28 09:15:45;;;;;;;;;;;;;;;;;;4973239;28;1468;-75
2022/09/28 09:18:24;;;;;;;;;;;;;;;;;;4998871;28;1134;-74
2022/09/28 09:21:15;;;;;;;;;;;;;;;;;;4975207;28;1306;-75
2022/09/28 09:23:47;;;;;;;;;;;;;;;;;;5005489;28;1964;-74
2022/09/28 09:26:13;;;;;;;;;;;;;;;;;;5007864;28;1336;-74
2022/09/28 09:28:59;;;;;;;;;;;;;;;;;;4978718;28;1379;-74
2022/09/28 09:31:37;;;;;;;;;;;;;;;;;;4977646;28;1314;-74
2022/09/28 09:34:08;;;;;;;;;;;;;;;;;;4974065;28;1450;-75
2022/09/28 09:36:48;;;;;;;;;;;;;;;;;;4975063;28;1472;-74
2022/09/28 09:39:33;;;;;;;;;;;;;;;;;;4973698;28;1378;-74
2022/09/28 09:42:22;;;;;;;;;;;;;;;;;;4974085;28;1424;-75
2022/09/28 09:45:21;;;;;;;;;;;;;;;;;;4963232;28;1991;-76
2022/09/28 09:48:07;;;;;;;;;;;;;;;;;;4971935;28;1411;-75
2022/09/28 09:50:34;;;;;;;;;;;;;;;;;;4974298;28;1411;-75
2022/09/28 09:53:02;;;;;;;;;;;;;;;;;;4973237;28;1194;-74
2022/09/28 09:55:29;;;;;;;;;;;;;;;;;;4975580;28;1399;-75
2022/09/28 09:58:13;;;;;;;;;;;;;;;;;;4973988;28;1474;-75
2022/09/28 10:00:43;;;;;;;;;;;;;;;;;;4972905;28;1430;-75
2022/09/28 10:03:21;;;;;;;;;;;;;;;;;;4973229;28;1891;-74
2022/09/28 10:05:48;;;;;;;;;;;;;;;;;;4975791;28;1568;-74
2022/09/28 10:08:15;;;;;;;;;;;;;;;;;;4977277;28;1460;-74
2022/09/28 10:10:47;;;;;;;;;;;;;;;;;;4974036;28;2074;-74
2022/09/28 10:13:15;;;;;;;;;;;;;;;;;;4973089;28;1468;-74
2022/09/28 10:15:44;;;;;;;;;;;;;;;;;;4973412;28;1424;-75
2022/09/28 10:18:24;;;;;;;;;;;;;;;;;;4972878;28;1649;-75
2022/09/28 10:21:12;;;;;;;;;;;;;;;;;;4973222;28;1498;-74
2022/09/28 10:23:48;;;;;;;;;;;;;;;;;;4973831;28;1906;-74
2022/09/28 10:26:15;;;;;;;;;;;;;;;;;;4973807;28;1422;-74
2022/09/28 10:28:43;;;;;;;;;;;;;;;;;;4975900;28;1532;-75
2022/09/28 10:31:29;;;;;;;;;;;;;;;;;;4973200;28;1000;-74
2022/09/28 10:33:55;;;;;;;;;;;;;;;;;;4972519;28;1423;-74
2022/09/28 10:36:25;;;;;;;;;;;;;;;;;;4973672;28;1504;-73
2022/09/28 10:38:53;;;;;;;;;;;;;;;;;;4973651;28;1417;-75
2022/09/28 10:41:30;;;;;;;;;;;;;;;;;;4975758;28;1446;-76
2022/09/28 10:44:05;;;;;;;;;;;;;;;;;;4972030;28;1918;-73
2022/09/28 10:46:37;;;;;;;;;;;;;;;;;;4972405;28;1513;-75
2022/09/28 10:49:12;;;;;;;;;;;;;;;;;;4972530;28;1252;-75
2022/09/28 10:51:42;;;;;;;;;;;;;;;;;;4971795;28;1404;-76
2022/09/28 10:54:15;;;;;;;;;;;;;;;;;;4972402;28;1282;-76
2022/09/28 10:56:47;;;;;;;;;;;;;;;;;;4970758;28;1388;-76
2022/09/28 10:59:23;;;;;;;;;;;;;;;;;;5004125;28;1506;-76
2022/09/28 11:01:52;;;;;;;;;;;;;;;;;;4972131;28;1476;-76
2022/09/28 11:04:19;;;;;;;;;;;;;;;;;;4971807;28;1914;-76
2022/09/28 11:06:46;;;;;;;;;;;;;;;;;;5004848;28;1449;-76
2022/09/28 11:09:21;;;;;;;;;;;;;;;;;;4971857;28;1248;-76
2022/09/28 11:11:47;;;;;;;;;;;;;;;;;;4971855;28;1329;-76
2022/09/28 11:14:19;;;;;;;;;;;;;;;;;;4972473;28;1310;-76
2022/09/28 11:16:45;;;;;;;;;;;;;;;;;;4972235;28;1444;-77
2022/09/28 11:19:26;;;;;;;;;;;;;;;;;;4972278;28;1416;-76
2022/09/28 11:21:53;;;;;;;;;;;;;;;;;;4971551;28;1155;-77
2022/09/28 11:24:25;;;;;;;;;;;;;;;;;;4971556;28;1918;-73
2022/09/28 11:26:55;;;;;;;;;;;;;;;;;;4972822;28;1777;-77
2022/09/28 11:29:25;;;;;;;;;;;;;;;;;;4964509;28;1452;-76
2022/09/28 11:32:10;;;;;;;;;;;;;;;;;;5004490;28;1182;-76
2022/09/28 11:34:55;;;;;;;;;;;;;;;;;;4971924;28;1116;-74
2022/09/28 11:37:31;;;;;;;;;;;;;;;;;;4972596;28;1471;-76
2022/09/28 11:40:01;;;;;;;;;;;;;;;;;;4972160;28;1164;-74
2022/09/28 11:42:31;;;;;;;;;;;;;;;;;;4972259;28;1571;-75
2022/09/28 11:44:58;;;;;;;;;;;;;;;;;;4972380;28;1910;-75
2022/09/28 11:47:32;;;;;;;;;;;;;;;;;;4972736;28;1588;-75
2022/09/28 11:50:00;;;;;;;;;;;;;;;;;;4976940;28;1156;-75
2022/09/28 11:52:27;;;;;;;;;;;;;;;;;;4975505;28;1411;-75
2022/09/28 11:54:55;;;;;;;;;;;;;;;;;;4973928;28;1489;-75
2022/09/28 11:57:23;;;;;;;;;;;;;;;;;;4974795;28;1504;-74
2022/09/28 11:59:52;;;;;;;;;;;;;;;;;;4972460;28;1491;-75
2022/09/28 12:02:19;;;;;;;;;;;;;;;;;;4971028;28;1214;-75
2022/09/28 12:04:52;;;;;;;;;;;;;;;;;;4971601;28;1968;-75
2022/09/28 12:07:23;;;;;;;;;;;;;;;;;;4971720;28;1646;-74
2022/09/28 12:09:50;;;;;;;;;;;;;;;;;;4972413;28;1587;-75
2022/09/28 12:12:21;;;;;;;;;;;;;;;;;;4970455;28;1476;-75
2022/09/28 12:14:48;;;;;;;;;;;;;;;;;;4971188;28;1840;-74
2022/09/28 12:17:17;;;;;;;;;;;;;;;;;;4971924;28;1417;-73
2022/09/28 12:19:45;;;;;;;;;;;;;;;;;;4974805;28;1488;-74
2022/09/28 12:22:12;;;;;;;;;;;;;;;;;;4972809;28;1383;-74
2022/09/28 12:24:38;;;;;;;;;;;;;;;;;;4973263;28;1915;-76
2022/09/28 12:27:06;;;;;;;;;;;;;;;;;;4969595;28;1438;-76
2022/09/28 12:29:33;;;;;;;;;;;;;;;;;;4972284;28;1309;-77
2022/09/28 12:32:02;;;;;;;;;;;;;;;;;;4972894;28;1191;-77
2022/09/28 12:34:29;;;;;;;;;;;;;;;;;;4973158;28;942;-76
2022/09/28 12:36:59;;;;;;;;;;;;;;;;;;4974279;28;1439;-76
2022/09/28 12:39:30;;;;;;;;;;;;;;;;;;4972977;28;1460;-77
2022/09/28 12:42:00;;;;;;;;;;;;;;;;;;4973100;28;1175;-77
2022/09/28 12:44:30;;;;;;;;;;;;;;;;;;4971815;28;1976;-76
2022/09/28 12:47:04;;;;;;;;;;;;;;;;;;4973201;28;1425;-76
2022/09/28 12:49:34;;;;;;;;;;;;;;;;;;4971017;28;1155;-77
2022/09/28 12:52:03;;;;;;;;;;;;;;;;;;4971604;28;1442;-77
2022/09/28 12:54:33;;;;;;;;;;;;;;;;;;4971878;28;1152;-76
2022/09/28 12:57:02;;;;;;;;;;;;;;;;;;4973429;28;1470;-76
2022/09/28 12:59:29;;;;;;;;;;;;;;;;;;4971638;28;1430;-74
2022/09/28 13:01:58;;;;;;;;;;;;;;;;;;4971857;28;1072;-76
2022/09/28 13:04:40;;;;;;;;;;;;;;;;;;4970687;28;1910;-76
2022/09/28 13:07:07;;;;;;;;;;;;;;;;;;4964572;28;1469;-75
2022/09/28 13:09:35;;;;;;;;;;;;;;;;;;4975348;28;1407;-73
2022/09/28 13:12:23;;;;;;;;;;;;;;;;;;4975244;28;1156;-76
2022/09/28 13:15:08;;;;;;;;;;;;;;;;;;4971439;28;1413;-75
2022/09/28 13:17:39;;;;;;;;;;;;;;;;;;4969299;28;1358;-76
2022/09/28 13:20:11;;;;;;;;;;;;;;;;;;4975542;28;1128;-76
2022/09/28 13:22:41;;;;;;;;;;;;;;;;;;4999902;28;1427;-76
2022/09/28 13:25:10;;;;;;;;;;;;;;;;;;4975745;28;1985;-75
2022/09/28 13:27:38;;;;;;;;;;;;;;;;;;4975318;28;1368;-76
2022/09/28 13:30:06;;;;;;;;;;;;;;;;;;4975528;28;1231;-76
2022/09/28 13:32:32;;;;;;;;;;;;;;;;;;4964066;28;1413;-76
2022/09/28 13:35:00;;;;;;;;;;;;;;;;;;4975145;28;1202;-75
2022/09/28 13:37:27;;;;;;;;;;;;;;;;;;4977802;28;1500;-76
2022/09/28 13:39:55;;;;;;;;;;;;;;;;;;5013136;23;1998;-70
2022/09/28 13:42:36;;;;;;;;;;;;;;;;;;5048747;28;1513;-70
2022/09/28 13:45:08;;;;;;;;;;;;;;;;;;5048417;28;1910;-70
2022/09/28 13:47:52;;;;;;;;;;;;;;;;;;5050533;28;1448;-70
2022/09/28 13:50:21;;;;;;;;;;;;;;;;;;5054817;28;1465;-70
2022/09/28 13:52:50;;;;;;;;;;;;;;;;;;5073114;28;1063;-70
2022/09/28 13:55:26;;;;;;;;;;;;;;;;;;5073273;28;1138;-69
2022/09/28 13:57:53;;;;;;;;;;;;;;;;;;5066564;28;1304;-69
2022/09/28 14:00:21;;;;;;;;;;;;;;;;;;5054050;28;1484;-71
2022/09/28 14:02:48;;;;;;;;;;;;;;;;;;5052933;28;1142;-70
2022/09/28 14:05:35;;;;;;;;;;;;;;;;;;5052951;28;1977;-70
2022/09/28 14:08:11;;;;;;;;;;;;;;;;;;5059630;28;1158;-70
2022/09/28 14:10:48;;;;;;;;;;;;;;;;;;5065285;28;1422;-70
2022/09/28 14:13:15;;;;;;;;;;;;;;;;;;5060585;28;1174;-69
2022/09/28 14:15:44;;;;;;;;;;;;;;;;;;5053023;28;1798;-70
2022/09/28 14:18:16;;;;;;;;;;;;;;;;;;5051943;28;866;-70
2022/09/28 14:20:42;;;;;;;;;;;;;;;;;;5052468;28;1461;-69
2022/09/28 14:23:13;;;;;;;;;;;;;;;;;;5052600;28;1302;-69
2022/09/28 14:25:40;;;;;;;;;;;;;;;;;;5052670;28;1910;-71
2022/09/28 14:28:15;;;;;;;;;;;;;;;;;;5052881;28;826;-71
2022/09/28 14:30:46;;;;;;;;;;;;;;;;;;5063917;28;1516;-70
2022/09/28 14:33:15;;;;;;;;;;;;;;;;;;5058796;28;1190;-69
2022/09/28 14:35:41;;;;;;;;;;;;;;;;;;5064689;28;1435;-70
2022/09/28 14:41:11;;;;;;;;;;;;;;;;;;5056775;28;1506;-70
2022/09/28 14:43:57;;;;;;;;;;;;;;;;;;5050884;28;1130;-70
2022/09/28 14:46:31;;;;;;;;;;;;;;;;;;5052365;28;1918;-69
2022/09/28 14:49:00;;;;;;;;;;;;;;;;;;5061249;28;1454;-70
2022/09/28 14:52:01;;;;;;;;;;;;;;;;;;5062035;28;1672;-70
2022/09/28 14:54:28;;;;;;;;;;;;;;;;;;4986181;28;1137;-70
2022/09/28 14:56:56;;;;;;;;;;;;;;;;;;4971086;28;1421;-70
2022/09/28 14:59:25;;;;;;;;;;;;;;;;;;5016557;28;1533;-71
2022/09/28 15:01:52;;;;;;;;;;;;;;;;;;5054752;28;1296;-70
2022/09/28 15:04:19;;;;;;;;;;;;;;;;;;5070472;28;882;-70
2022/09/28 15:06:45;;;;;;;;;;;;;;;;;;5069932;28;1979;-71
2022/09/28 15:09:25;;;;;;;;;;;;;;;;;;5063903;28;1513;-70
2022/09/28 15:11:56;;;;;;;;;;;;;;;;;;5050188;28;1514;-70
2022/09/28 15:14:23;;;;;;;;;;;;;;;;;;5051502;28;1027;-70
2022/09/28 15:16:50;;;;;;;;;;;;;;;;;;5052037;28;1080;-70
2022/09/28 15:19:20;;;;;;;;;;;;;;;;;;5059245;28;1473;-70
2022/09/28 15:21:48;;;;;;;;;;;;;;;;;;5061348;28;1402;-70
2022/09/28 15:24:24;;;;;;;;;;;;;;;;;;5055504;28;1357;-71
2022/09/28 15:26:52;;;;;;;;;;;;;;;;;;5053802;28;1922;-69
2022/09/28 15:29:18;;;;;;;;;;;;;;;;;;5053486;28;1493;-70
2022/09/28 15:31:45;;;;;;;;;;;;;;;;;;5062894;28;1107;-70
2022/09/28 15:37:07;;;;;;;;;;;;;;;;;;5049745;28;1557;-69
2022/09/28 15:39:34;;;;;;;;;;;;;;;;;;5058646;28;1594;-70
2022/09/28 15:42:00;;;;;;;;;;;;;;;;;;5070153;28;1239;-70
2022/09/28 15:44:31;;;;;;;;;;;;;;;;;;5071110;28;894;-71
2022/09/28 15:47:08;;;;;;;;;;;;;;;;;;5049721;28;1918;-70
2022/09/28 15:49:40;;;;;;;;;;;;;;;;;;5059053;28;1585;-70
2022/09/28 15:52:06;;;;;;;;;;;;;;;;;;5052738;28;1407;-70
2022/09/28 15:54:34;;;;;;;;;;;;;;;;;;5060333;28;1375;-70
2022/09/28 15:57:01;;;;;;;;;;;;;;;;;;5053785;28;1401;-71
2022/09/28 15:59:30;;;;;;;;;;;;;;;;;;5060782;28;1475;-71
2022/09/28 16:02:04;;;;;;;;;;;;;;;;;;5056194;28;1515;-71
2022/09/28 16:04:38;;;;;;;;;;;;;;;;;;5061222;28;1489;-71
2022/09/28 16:07:16;;;;;;;;;;;;;;;;;;5064950;28;1922;-71
2022/09/28 16:09:52;;;;;;;;;;;;;;;;;;5067024;28;1437;-70
2022/09/28 16:12:20;;;;;;;;;;;;;;;;;;5060790;28;1442;-69
2022/09/28 16:14:47;;;;;;;;;;;;;;;;;;5060021;28;1032;-71
2022/09/28 16:17:14;;;;;;;;;;;;;;;;;;5059247;28;1509;-71
2022/09/28 16:19:42;;;;;;;;;;;;;;;;;;5061154;28;1659;-71
2022/09/28 16:22:09;;;;;;;;;;;;;;;;;;5069378;28;1158;-70
2022/09/28 16:24:36;;;;;;;;;;;;;;;;;;5065078;28;1940;-71
2022/09/28 16:27:02;;;;;;;;;;;;;;;;;;5062992;28;1980;-70
2022/09/28 16:29:35;;;;;;;;;;;;;;;;;;5070082;28;1418;-71
2022/09/28 16:32:16;;;;;;;;;;;;;;;;;;5070993;28;828;-71
2022/09/28 16:34:44;;;;;;;;;;;;;;;;;;5061088;28;1389;-71
2022/09/28 16:37:21;;;;;;;;;;;;;;;;;;5068851;28;1905;-71
2022/09/28 16:39:47;;;;;;;;;;;;;;;;;;5070980;28;1379;-71
2022/09/28 16:42:14;;;;;;;;;;;;;;;;;;5068782;28;1438;-70
2022/09/28 16:44:40;;;;;;;;;;;;;;;;;;5062075;28;1499;-69
2022/09/28 16:47:06;;;;;;;;;;;;;;;;;;5054837;28;1914;-71
2022/09/28 16:49:32;;;;;;;;;;;;;;;;;;5055200;28;1493;-71
2022/09/28 16:52:01;;;;;;;;;;;;;;;;;;5065721;28;1054;-70
2022/09/28 16:57:17;;;;;;;;;;;;;;;;;;5044239;28;1289;-70
2022/09/28 16:59:43;;;;;;;;;;;;;;;;;;5056377;28;1482;-71
2022/09/28 17:02:17;;;;;;;;;;;;;;;;;;5063689;28;1129;-70
2022/09/28 17:04:43;;;;;;;;;;;;;;;;;;5053292;28;1462;-69
2022/09/28 17:07:11;;;;;;;;;;;;;;;;;;5063763;28;1922;-70
2022/09/28 17:09:37;;;;;;;;;;;;;;;;;;5054793;28;1381;-71
2022/09/28 17:12:06;;;;;;;;;;;;;;;;;;5063172;28;1507;-71
2022/09/28 17:14:32;;;;;;;;;;;;;;;;;;5054566;28;1135;-71
2022/09/28 17:17:01;;;;;;;;;;;;;;;;;;5055065;28;1087;-71
2022/09/28 17:19:29;;;;;;;;;;;;;;;;;;5052838;28;1286;-70
2022/09/28 17:21:55;;;;;;;;;;;;;;;;;;5061973;28;1441;-71
2022/09/28 17:24:23;;;;;;;;;;;;;;;;;;5061876;28;1175;-71
2022/09/28 17:26:49;;;;;;;;;;;;;;;;;;5071179;28;1981;-70
2022/09/28 17:29:15;;;;;;;;;;;;;;;;;;5072991;28;1435;-70
2022/09/28 17:31:42;;;;;;;;;;;;;;;;;;5073923;28;949;-71
2022/09/28 17:34:08;;;;;;;;;;;;;;;;;;5061848;28;1450;-71
2022/09/28 17:36:35;;;;;;;;;;;;;;;;;;5052714;28;1181;-71
2022/09/28 17:39:01;;;;;;;;;;;;;;;;;;5052134;28;1332;-69
2022/09/28 17:41:29;;;;;;;;;;;;;;;;;;5062151;28;1276;-71
2022/09/28 17:43:56;;;;;;;;;;;;;;;;;;5061360;28;1791;-72
2022/09/28 17:46:26;;;;;;;;;;;;;;;;;;5058117;28;1967;-71